Terminal Aerodrome Forecast
Issued by NWS

Home | Current Version | Previous Version | Text Only | Print | Product List | Glossary On
Versions: 1 2 3 4 5 6 7 8 9 10 11 12 13 14 15 16 17 18 19
000
FTUS43 KDVN 040654 AAA
TAFBRL
TAF AMD
KBRL 040654Z 0407/0506 00000KT 4SM BR SKC
      TEMPO 0408/0412 2SM BR
     FM041400 VRB03KT P6SM SKC=

USA.gov is the U.S. government's official web portal to all federal, state and local government web resources and services.